メインページ
METAR-TAF:

METAR-TAF

空港 :

Lancaster Airport

ランカスター, ペンシルバニア州, アメリカ合衆国

緯度: 40-07-13N, 経度: 076-17-40W, 海抜: 123m

現時点の気象観測

当レポートは34分前の23:53(UTC)に作成
の風 4kt
気温 20°C
湿度 60%
気圧 1022 hPa
視程: 16.1km
晴天

METAR: KLNS 242353Z 35004KT 10SM CLR 20/12 A3019 RMK AO2 SLP223 T02000117 10256 20200 53005

時間: 20:27 (00:27 UTC)

予報

当レポートは36分前の23:51(UTC)に作成
予報は25日の 00時(UTC)から 25日の 24時(UTC)まで有効
北/北東の風 3kt
視程: 10km
高度7000ftの雲は散在している
25日の 1400時(UTC)から
東/北東の風 9kt
視程: 10km
高度6000ftの雲は散在している

TAF: KLNS 242351Z 2500/2524 02003KT P6SM SCT070 FM251400 07009KT P6SM SCT060

4,000以上の空港の気象観測と天気予報(METAR報とTAF報)

利用可能な観測所は地図上に黄色い丸と赤い丸で示す。

丸の上にカーソルを重ねると観測所名を参照できる。

次にクリックすると気象観測と天気予報を参照できる。

マップの切り替え:黒色「×」印の緑ボタンをクリックして拡大、「-」印の緑ボタンをクリックして縮小、緑色の三角印をクリックして隣りの地図に切り替え


METAR-TAF: